Time;durP1;ratioP1;P1;durP2;ratioP2;P2;SDS_P1;SDS_P2;PMS_P1;PMS_P2;Temp;Humidity;BMP_temperature;BMP_pressure;BME280_temperature;BME280_humidity;BME280_pressure;Samples;Min_cycle;Max_cycle;Signal;HPM_P1;HPM_P2
2023/10/31 00:00:30;;;;;;;;;;;12.80;99.90;;;;;;5107112;28;19926;-70
2023/10/31 00:02:56;;;;;;;;;;;12.80;99.90;;;;;;5122007;27;19931;-70
2023/10/31 00:05:21;;;;;;;;;;;12.80;99.90;;;;;;5105370;27;20234;-70
2023/10/31 00:07:47;;;;;;;;;;;12.80;99.90;;;;;;5104538;28;20380;-70
2023/10/31 00:10:13;;;;;;;;;;;12.80;99.90;;;;;;5102268;28;19908;-70
2023/10/31 00:12:39;;;;;;;;;;;12.80;99.90;;;;;;5108745;27;19943;-70
2023/10/31 00:15:05;;;;;;;;;;;12.80;99.90;;;;;;5108749;28;20364;-70
2023/10/31 00:17:30;;;;;;;;;;;12.80;99.90;;;;;;5107851;28;19991;-70
2023/10/31 00:19:56;;;;;;;;;;;12.80;99.90;;;;;;5109104;28;19990;-70
2023/10/31 00:22:22;;;;;;;;;;;12.70;99.90;;;;;;5125623;27;19998;-70
2023/10/31 00:24:48;;;;;;;;;;;12.70;99.90;;;;;;5105733;27;20020;-70
2023/10/31 00:27:14;;;;;;;;;;;12.70;99.90;;;;;;5112076;27;20601;-70
2023/10/31 00:29:40;;;;;;;;;;;12.70;99.90;;;;;;5106583;28;19911;-70
2023/10/31 00:32:05;;;;;;;;;;;12.70;99.90;;;;;;5118721;27;20375;-71
2023/10/31 00:34:31;;;;;;;;;;;12.70;99.90;;;;;;5111067;27;19912;-70
2023/10/31 00:36:56;;;;;;;;;;;12.70;99.90;;;;;;5109059;27;20388;-70
2023/10/31 00:39:22;;;;;;;;;;;12.60;99.90;;;;;;5125143;27;19974;-70
2023/10/31 00:41:47;;;;;;;;;;;12.60;99.90;;;;;;5117417;27;19971;-70
2023/10/31 00:44:13;;;;;;;;;;;12.60;99.90;;;;;;5111569;27;19934;-70
2023/10/31 00:46:39;;;;;;;;;;;12.60;99.90;;;;;;5117665;27;19915;-70
2023/10/31 00:49:05;;;;;;;;;;;12.60;99.90;;;;;;5100861;28;19975;-70
2023/10/31 00:51:30;;;;;;;;;;;12.50;99.90;;;;;;5117642;27;19908;-70
2023/10/31 00:53:56;;;;;;;;;;;12.50;99.90;;;;;;5111399;27;20722;-70
2023/10/31 00:56:21;;;;;;;;;;;12.50;99.90;;;;;;5120486;27;20047;-70
2023/10/31 00:58:47;;;;;;;;;;;12.50;99.90;;;;;;5098559;28;20017;-70
2023/10/31 01:01:12;;;;;;;;;;;12.50;99.90;;;;;;5098560;28;19915;-70
2023/10/31 01:03:38;;;;;;;;;;;12.50;99.90;;;;;;5108396;27;19912;-70
2023/10/31 01:06:03;;;;;;;;;;;12.40;99.90;;;;;;5115565;27;19955;-70
2023/10/31 01:08:29;;;;;;;;;;;12.40;99.90;;;;;;5124649;27;20058;-70
2023/10/31 01:10:55;;;;;;;;;;;12.40;99.90;;;;;;5096382;28;20268;-70
2023/10/31 01:13:21;;;;;;;;;;;12.40;99.90;;;;;;5096615;28;19961;-70
2023/10/31 01:15:46;;;;;;;;;;;12.40;99.90;;;;;;5117451;27;19961;-70
2023/10/31 01:18:12;;;;;;;;;;;12.40;99.90;;;;;;5119971;27;20229;-70
2023/10/31 01:20:38;;;;;;;;;;;12.30;99.90;;;;;;5109704;27;20040;-70
2023/10/31 01:23:03;;;;;;;;;;;12.30;99.90;;;;;;5108370;28;19999;-70
2023/10/31 01:25:29;;;;;;;;;;;12.30;99.90;;;;;;5108705;27;19914;-70
2023/10/31 01:27:55;;;;;;;;;;;12.30;99.90;;;;;;5111795;27;20505;-70
2023/10/31 01:30:20;;;;;;;;;;;12.30;99.90;;;;;;5110310;28;19967;-70
2023/10/31 01:32:46;;;;;;;;;;;12.30;99.90;;;;;;5104736;28;19923;-70
2023/10/31 01:35:11;;;;;;;;;;;12.30;99.90;;;;;;5101569;28;19969;-70
2023/10/31 01:37:37;;;;;;;;;;;12.30;99.90;;;;;;5091526;27;20002;-70
2023/10/31 01:40:03;;;;;;;;;;;12.20;99.90;;;;;;5093640;28;20369;-70
2023/10/31 01:42:29;;;;;;;;;;;12.20;99.90;;;;;;5114994;28;19918;-70
2023/10/31 01:44:55;;;;;;;;;;;12.20;99.90;;;;;;5100205;28;20016;-70
2023/10/31 01:47:21;;;;;;;;;;;12.20;99.90;;;;;;5099798;28;20679;-70
2023/10/31 01:49:46;;;;;;;;;;;12.20;99.90;;;;;;5117692;28;19922;-70
2023/10/31 01:52:12;;;;;;;;;;;12.20;99.90;;;;;;5113713;27;19990;-70
2023/10/31 01:54:37;;;;;;;;;;;12.20;99.90;;;;;;5108503;28;19923;-70
2023/10/31 01:57:04;;;;;;;;;;;12.10;99.90;;;;;;5107670;28;20025;-70
2023/10/31 01:59:30;;;;;;;;;;;12.20;99.90;;;;;;5100174;28;19972;-70
2023/10/31 02:01:57;;;;;;;;;;;12.20;99.90;;;;;;5116428;27;19912;-70
2023/10/31 02:04:23;;;;;;;;;;;12.20;99.90;;;;;;5116920;28;19918;-70
2023/10/31 02:06:48;;;;;;;;;;;12.10;99.90;;;;;;5115470;27;20333;-70
2023/10/31 02:09:14;;;;;;;;;;;12.10;99.90;;;;;;5113879;27;20005;-70
2023/10/31 02:11:40;;;;;;;;;;;12.10;99.90;;;;;;5110731;27;19907;-70
2023/10/31 02:14:05;;;;;;;;;;;12.10;99.90;;;;;;5116625;27;19915;-70
2023/10/31 02:16:31;;;;;;;;;;;12.10;99.90;;;;;;5123098;27;19980;-70
2023/10/31 02:18:56;;;;;;;;;;;12.10;99.90;;;;;;5111853;28;20017;-70
2023/10/31 02:21:22;;;;;;;;;;;12.10;99.90;;;;;;5112052;27;19912;-70
2023/10/31 02:24:01;;;;;;;;;;;12.10;99.90;;;;;;5108617;27;19916;-70
2023/10/31 02:26:33;;;;;;;;;;;12.10;99.90;;;;;;5099955;28;19916;-70
2023/10/31 02:28:59;;;;;;;;;;;12.00;99.90;;;;;;5094326;28;19919;-70
2023/10/31 02:31:24;;;;;;;;;;;12.00;99.90;;;;;;5103197;28;19911;-70
2023/10/31 02:33:50;;;;;;;;;;;12.00;99.90;;;;;;5102469;28;19918;-70
2023/10/31 02:36:16;;;;;;;;;;;12.00;99.90;;;;;;5111395;28;19919;-70
2023/10/31 02:38:41;;;;;;;;;;;12.00;99.90;;;;;;5112582;27;20578;-70
2023/10/31 02:41:07;;;;;;;;;;;12.00;99.90;;;;;;5111874;27;19912;-70
2023/10/31 02:43:32;;;;;;;;;;;12.00;99.90;;;;;;5108341;27;20002;-70
2023/10/31 02:45:58;;;;;;;;;;;12.00;99.90;;;;;;5122899;27;19912;-70
2023/10/31 02:48:24;;;;;;;;;;;12.00;99.90;;;;;;5131089;27;19915;-70
2023/10/31 02:50:50;;;;;;;;;;;12.00;99.90;;;;;;5117988;27;19912;-70
2023/10/31 02:53:17;;;;;;;;;;;12.00;99.90;;;;;;5114923;27;19961;-70
2023/10/31 02:55:43;;;;;;;;;;;12.00;99.90;;;;;;5109343;28;19908;-70
2023/10/31 02:58:08;;;;;;;;;;;12.00;99.90;;;;;;5110865;28;19915;-70
2023/10/31 03:00:34;;;;;;;;;;;12.00;99.90;;;;;;5108703;28;19972;-70
2023/10/31 03:03:00;;;;;;;;;;;12.00;99.90;;;;;;5119239;27;19907;-70
2023/10/31 03:05:25;;;;;;;;;;;12.00;99.90;;;;;;5102772;28;20323;-70
2023/10/31 03:07:51;;;;;;;;;;;11.90;99.90;;;;;;5102210;27;19959;-70
2023/10/31 03:10:16;;;;;;;;;;;11.90;99.90;;;;;;5121848;27;19916;-70
2023/10/31 03:12:42;;;;;;;;;;;11.90;99.90;;;;;;5112137;27;19920;-70
2023/10/31 03:15:07;;;;;;;;;;;11.90;99.90;;;;;;5113452;27;19958;-70
2023/10/31 03:17:33;;;;;;;;;;;11.90;99.90;;;;;;5118618;27;19939;-70
2023/10/31 03:19:58;;;;;;;;;;;11.90;99.90;;;;;;5125837;27;19912;-70
2023/10/31 03:22:24;;;;;;;;;;;11.90;99.90;;;;;;5117172;27;19918;-70
2023/10/31 03:24:49;;;;;;;;;;;11.90;99.90;;;;;;5117252;27;21292;-70
2023/10/31 03:27:15;;;;;;;;;;;11.90;99.90;;;;;;5110079;28;19919;-70
2023/10/31 03:29:40;;;;;;;;;;;11.90;99.90;;;;;;5107561;27;19943;-70
2023/10/31 03:32:06;;;;;;;;;;;11.90;99.90;;;;;;5115666;27;20002;-70
2023/10/31 03:34:31;;;;;;;;;;;11.90;99.90;;;;;;5118148;27;19918;-70
2023/10/31 03:36:57;;;;;;;;;;;11.90;99.90;;;;;;5107634;28;20434;-70
2023/10/31 03:39:22;;;;;;;;;;;11.90;99.90;;;;;;5118165;27;19991;-70
2023/10/31 03:41:48;;;;;;;;;;;11.90;99.90;;;;;;5120840;27;19916;-70
2023/10/31 03:44:13;;;;;;;;;;;11.90;99.90;;;;;;5121586;27;19930;-70
2023/10/31 03:46:39;;;;;;;;;;;11.90;99.90;;;;;;5126973;27;20643;-70
2023/10/31 03:49:07;;;;;;;;;;;11.90;99.90;;;;;;5110911;27;19912;-70
2023/10/31 03:51:33;;;;;;;;;;;11.90;99.90;;;;;;5117506;27;19993;-70
2023/10/31 03:53:58;;;;;;;;;;;11.90;99.90;;;;;;5108037;28;20006;-70
2023/10/31 03:56:24;;;;;;;;;;;11.90;99.90;;;;;;5125677;27;19998;-70
2023/10/31 03:58:49;;;;;;;;;;;11.90;99.90;;;;;;5118189;27;19960;-70
2023/10/31 04:01:15;;;;;;;;;;;11.80;99.90;;;;;;5114330;27;19908;-70
2023/10/31 04:03:40;;;;;;;;;;;11.90;99.90;;;;;;5102010;27;19953;-70
2023/10/31 04:06:06;;;;;;;;;;;11.90;99.90;;;;;;5129411;27;20002;-70
2023/10/31 04:08:31;;;;;;;;;;;11.80;99.90;;;;;;5118927;27;19972;-70
2023/10/31 04:10:57;;;;;;;;;;;11.80;99.90;;;;;;5121083;27;19918;-70
2023/10/31 04:13:22;;;;;;;;;;;11.80;99.90;;;;;;5129204;27;19908;-70
2023/10/31 04:15:48;;;;;;;;;;;11.80;99.90;;;;;;5119735;27;19980;-70
2023/10/31 04:18:14;;;;;;;;;;;11.80;99.90;;;;;;5099714;28;19912;-70
2023/10/31 04:20:40;;;;;;;;;;;11.80;99.90;;;;;;5115595;27;19919;-70
2023/10/31 04:23:05;;;;;;;;;;;11.80;99.90;;;;;;5106976;28;19907;-70
2023/10/31 04:25:31;;;;;;;;;;;11.80;99.90;;;;;;5115161;27;19926;-70
2023/10/31 04:27:57;;;;;;;;;;;11.80;99.90;;;;;;5120252;27;19922;-70
2023/10/31 04:30:23;;;;;;;;;;;11.80;99.90;;;;;;5111400;27;20413;-70
2023/10/31 04:32:48;;;;;;;;;;;11.80;99.90;;;;;;5113426;27;20020;-70
2023/10/31 04:35:14;;;;;;;;;;;11.80;99.90;;;;;;5120699;27;19930;-70
2023/10/31 04:37:39;;;;;;;;;;;11.80;99.90;;;;;;5119737;27;19907;-70
2023/10/31 04:40:05;;;;;;;;;;;11.80;99.90;;;;;;5115593;27;20007;-70
2023/10/31 04:42:31;;;;;;;;;;;11.80;99.90;;;;;;5109556;27;19912;-70
2023/10/31 04:44:57;;;;;;;;;;;11.80;99.90;;;;;;5120583;27;19911;-70
2023/10/31 04:47:22;;;;;;;;;;;11.80;99.90;;;;;;5121101;27;19922;-71
2023/10/31 04:49:48;;;;;;;;;;;11.80;99.90;;;;;;5107832;28;19911;-70
2023/10/31 04:52:13;;;;;;;;;;;11.70;99.90;;;;;;5122539;27;19919;-70
2023/10/31 04:54:39;;;;;;;;;;;11.80;99.90;;;;;;5110264;27;19911;-70
2023/10/31 04:57:05;;;;;;;;;;;11.80;99.90;;;;;;5126426;27;19915;-70
2023/10/31 04:59:30;;;;;;;;;;;11.70;99.90;;;;;;5106222;28;20003;-70
2023/10/31 05:01:56;;;;;;;;;;;11.70;99.90;;;;;;5111166;27;20006;-70
2023/10/31 05:04:21;;;;;;;;;;;11.70;99.90;;;;;;5115034;27;19920;-70
2023/10/31 05:06:47;;;;;;;;;;;11.70;99.90;;;;;;5125760;27;20207;-70
2023/10/31 05:09:14;;;;;;;;;;;11.70;99.90;;;;;;5128532;27;20023;-70
2023/10/31 05:11:39;;;;;;;;;;;11.70;99.90;;;;;;5110420;27;19912;-70
2023/10/31 05:14:05;;;;;;;;;;;11.70;99.90;;;;;;5121207;27;19908;-70
2023/10/31 05:16:31;;;;;;;;;;;11.70;99.90;;;;;;5102582;27;19935;-70
2023/10/31 05:18:59;;;;;;;;;;;11.70;99.90;;;;;;5120321;27;20510;-70
2023/10/31 05:21:25;;;;;;;;;;;11.70;99.90;;;;;;5103951;28;19912;-70
2023/10/31 05:23:50;;;;;;;;;;;11.70;99.90;;;;;;5115788;27;20000;-70
2023/10/31 05:26:16;;;;;;;;;;;11.70;99.90;;;;;;5108164;28;19908;-71
2023/10/31 05:28:42;;;;;;;;;;;11.70;99.90;;;;;;5113774;28;20276;-71
2023/10/31 05:31:08;;;;;;;;;;;11.70;99.90;;;;;;5111246;28;19912;-71
2023/10/31 05:33:33;;;;;;;;;;;11.70;99.90;;;;;;5096591;28;19908;-70
2023/10/31 05:35:59;;;;;;;;;;;11.70;99.90;;;;;;5112618;28;19912;-70
2023/10/31 05:38:24;;;;;;;;;;;11.70;99.90;;;;;;5103554;28;20341;-70
2023/10/31 05:40:50;;;;;;;;;;;11.70;99.90;;;;;;5114278;27;20015;-70
2023/10/31 05:43:15;;;;;;;;;;;11.60;99.90;;;;;;5115304;27;19932;-71
2023/10/31 05:45:41;;;;;;;;;;;11.60;99.90;;;;;;5117371;27;20260;-70
2023/10/31 05:48:06;;;;;;;;;;;11.60;99.90;;;;;;5114780;27;19916;-70
2023/10/31 05:50:32;;;;;;;;;;;11.60;99.90;;;;;;5116782;27;19988;-70
2023/10/31 05:52:58;;;;;;;;;;;11.60;99.90;;;;;;5115512;27;20551;-70
2023/10/31 05:55:23;;;;;;;;;;;11.60;99.90;;;;;;5124727;27;19907;-70
2023/10/31 05:57:49;;;;;;;;;;;11.60;99.90;;;;;;5126202;27;19946;-70
2023/10/31 06:00:14;;;;;;;;;;;11.60;99.90;;;;;;5102784;28;19965;-70
2023/10/31 06:02:40;;;;;;;;;;;11.60;99.90;;;;;;5104985;27;19911;-70
2023/10/31 06:05:06;;;;;;;;;;;11.60;99.90;;;;;;5118529;27;19971;-70
2023/10/31 06:07:31;;;;;;;;;;;11.60;99.90;;;;;;5108909;28;19916;-70
2023/10/31 06:09:57;;;;;;;;;;;11.60;99.90;;;;;;5111020;28;20453;-70
2023/10/31 06:12:22;;;;;;;;;;;11.60;99.90;;;;;;5118362;27;19991;-70
2023/10/31 06:14:48;;;;;;;;;;;11.60;99.90;;;;;;5122416;27;19961;-70
2023/10/31 06:17:15;;;;;;;;;;;11.60;99.90;;;;;;5124832;27;20670;-70
2023/10/31 06:19:45;;;;;;;;;;;11.60;99.90;;;;;;5110395;28;20608;-70
2023/10/31 06:22:11;;;;;;;;;;;11.60;99.90;;;;;;5102907;27;20502;-70
2023/10/31 06:24:36;;;;;;;;;;;11.60;99.90;;;;;;5118348;27;20295;-70
2023/10/31 06:27:03;;;;;;;;;;;11.60;99.90;;;;;;5103347;28;19916;-70
2023/10/31 06:29:28;;;;;;;;;;;11.60;99.90;;;;;;5124655;27;19950;-70
2023/10/31 06:31:54;;;;;;;;;;;11.60;99.90;;;;;;5108219;27;19947;-70
2023/10/31 06:34:19;;;;;;;;;;;11.60;99.90;;;;;;5117192;27;19912;-70
2023/10/31 06:36:45;;;;;;;;;;;11.60;99.90;;;;;;5112624;27;19918;-70
2023/10/31 06:39:10;;;;;;;;;;;11.60;99.90;;;;;;5117111;27;20245;-70
2023/10/31 06:41:36;;;;;;;;;;;11.60;99.90;;;;;;5102624;28;19916;-70
2023/10/31 06:44:01;;;;;;;;;;;11.60;99.90;;;;;;5103529;27;19964;-70
2023/10/31 06:46:26;;;;;;;;;;;11.60;99.90;;;;;;5110817;28;19960;-69
2023/10/31 06:48:52;;;;;;;;;;;11.60;99.90;;;;;;5110124;28;20329;-70
2023/10/31 06:51:17;;;;;;;;;;;11.60;99.90;;;;;;5126714;27;19911;-70
2023/10/31 06:53:43;;;;;;;;;;;11.60;99.90;;;;;;5111976;27;19961;-70
2023/10/31 06:56:09;;;;;;;;;;;11.60;99.90;;;;;;5110876;28;19986;-70
2023/10/31 06:58:34;;;;;;;;;;;11.60;99.90;;;;;;5115448;27;20462;-70
2023/10/31 07:01:00;;;;;;;;;;;11.50;99.90;;;;;;5117927;27;20275;-70
2023/10/31 07:03:25;;;;;;;;;;;11.60;99.90;;;;;;5118550;27;19918;-70
2023/10/31 07:05:51;;;;;;;;;;;11.60;99.90;;;;;;5111624;27;19951;-70
2023/10/31 07:08:16;;;;;;;;;;;11.60;99.90;;;;;;5112005;27;19947;-70
2023/10/31 07:10:42;;;;;;;;;;;11.60;99.90;;;;;;5113428;27;19912;-70
2023/10/31 07:13:07;;;;;;;;;;;11.50;99.90;;;;;;5120817;27;19958;-70
2023/10/31 07:15:38;;;;;;;;;;;11.60;99.90;;;;;;5115402;27;20443;-70
2023/10/31 07:18:04;;;;;;;;;;;11.50;99.90;;;;;;5118544;27;19918;-70
2023/10/31 07:20:30;;;;;;;;;;;11.60;99.90;;;;;;5117642;27;19912;-70
2023/10/31 07:22:55;;;;;;;;;;;11.60;99.90;;;;;;5109587;27;19992;-70
2023/10/31 07:25:21;;;;;;;;;;;11.60;99.90;;;;;;5116623;27;20376;-70
2023/10/31 07:27:46;;;;;;;;;;;11.50;99.90;;;;;;5118926;27;19915;-70
2023/10/31 07:30:12;;;;;;;;;;;11.60;99.90;;;;;;5112955;27;19938;-70
2023/10/31 07:32:37;;;;;;;;;;;11.50;99.90;;;;;;5107158;27;20265;-70
2023/10/31 07:35:03;;;;;;;;;;;11.60;99.90;;;;;;5098846;27;20044;-70
2023/10/31 07:37:28;;;;;;;;;;;11.60;99.90;;;;;;5122372;27;19912;-70
2023/10/31 07:39:55;;;;;;;;;;;11.60;99.90;;;;;;5098214;27;20424;-70
2023/10/31 07:42:20;;;;;;;;;;;11.60;99.90;;;;;;5111500;27;19999;-70
2023/10/31 07:44:46;;;;;;;;;;;11.60;99.90;;;;;;5103672;27;20048;-70
2023/10/31 07:47:11;;;;;;;;;;;11.60;99.90;;;;;;5109321;27;19912;-70
2023/10/31 07:49:37;;;;;;;;;;;11.60;99.90;;;;;;5114760;27;19911;-70
2023/10/31 07:52:02;;;;;;;;;;;11.60;99.90;;;;;;5108038;28;19911;-70
2023/10/31 07:54:28;;;;;;;;;;;11.60;99.90;;;;;;5107900;28;19907;-70
2023/10/31 07:56:55;;;;;;;;;;;11.60;99.90;;;;;;5125805;27;19915;-70
2023/10/31 07:59:20;;;;;;;;;;;11.60;99.90;;;;;;5097892;28;20018;-70
2023/10/31 08:01:47;;;;;;;;;;;11.60;99.90;;;;;;5111038;27;19982;-70
2023/10/31 08:04:15;;;;;;;;;;;11.60;99.90;;;;;;5108998;28;19912;-70
2023/10/31 08:06:40;;;;;;;;;;;11.60;99.90;;;;;;5116040;27;20325;-70
2023/10/31 08:09:06;;;;;;;;;;;11.60;99.90;;;;;;5108613;28;19915;-70
2023/10/31 08:11:32;;;;;;;;;;;11.60;99.90;;;;;;5116068;27;20007;-70
2023/10/31 08:13:58;;;;;;;;;;;11.70;99.90;;;;;;5122290;27;19942;-70
2023/10/31 08:16:23;;;;;;;;;;;11.70;99.90;;;;;;5113041;27;19908;-70
2023/10/31 08:18:49;;;;;;;;;;;11.70;99.90;;;;;;5104991;27;19915;-70
2023/10/31 08:21:14;;;;;;;;;;;11.70;99.90;;;;;;5121562;27;19954;-70
2023/10/31 08:23:40;;;;;;;;;;;11.70;99.90;;;;;;5098347;28;19940;-70
2023/10/31 08:26:05;;;;;;;;;;;11.70;99.90;;;;;;5109424;28;19961;-70
2023/10/31 08:28:31;;;;;;;;;;;11.70;99.90;;;;;;5097747;28;19943;-70
2023/10/31 08:30:57;;;;;;;;;;;11.70;99.90;;;;;;5100121;28;19916;-70
2023/10/31 08:33:23;;;;;;;;;;;11.70;99.90;;;;;;5117059;27;19919;-70
2023/10/31 08:35:48;;;;;;;;;;;11.70;99.90;;;;;;5102198;27;19912;-70
2023/10/31 08:38:14;;;;;;;;;;;11.70;99.90;;;;;;5104014;27;19947;-70
2023/10/31 08:40:40;;;;;;;;;;;11.70;99.90;;;;;;5107311;28;19962;-70
2023/10/31 08:43:06;;;;;;;;;;;11.70;99.90;;;;;;5107094;27;19911;-70
2023/10/31 08:45:32;;;;;;;;;;;11.70;99.90;;;;;;5112194;27;19976;-70
2023/10/31 08:47:58;;;;;;;;;;;11.70;99.90;;;;;;5102882;27;19919;-70
2023/10/31 08:50:23;;;;;;;;;;;11.80;99.90;;;;;;5113339;27;19908;-70
2023/10/31 08:52:49;;;;;;;;;;;11.70;99.90;;;;;;5114858;27;19911;-70
2023/10/31 08:55:14;;;;;;;;;;;11.80;99.90;;;;;;5128840;27;19911;-70
2023/10/31 08:57:40;;;;;;;;;;;11.80;99.90;;;;;;5101806;27;19908;-70
2023/10/31 09:00:06;;;;;;;;;;;11.70;99.90;;;;;;5100865;28;19920;-70
2023/10/31 09:02:31;;;;;;;;;;;11.80;99.90;;;;;;5112400;27;20334;-70
2023/10/31 09:04:57;;;;;;;;;;;11.80;99.90;;;;;;5096494;27;19913;-70
2023/10/31 09:07:22;;;;;;;;;;;11.80;99.90;;;;;;5101339;28;19947;-70
2023/10/31 09:09:48;;;;;;;;;;;11.90;99.90;;;;;;5107916;28;19985;-70
2023/10/31 09:12:13;;;;;;;;;;;11.90;99.90;;;;;;5099912;28;19915;-70
2023/10/31 09:14:39;;;;;;;;;;;11.90;99.90;;;;;;5099466;28;20248;-70
2023/10/31 09:17:04;;;;;;;;;;;11.90;99.90;;;;;;5104217;28;19951;-70
2023/10/31 09:19:29;;;;;;;;;;;11.90;99.90;;;;;;5104855;28;19962;-70
2023/10/31 09:21:55;;;;;;;;;;;12.00;99.90;;;;;;5089624;28;19911;-70
2023/10/31 09:24:21;;;;;;;;;;;12.00;99.90;;;;;;5091663;28;20373;-70
2023/10/31 09:26:46;;;;;;;;;;;11.90;99.90;;;;;;5126635;27;19990;-70
2023/10/31 09:29:12;;;;;;;;;;;12.00;99.90;;;;;;5103358;28;19951;-70
2023/10/31 09:31:37;;;;;;;;;;;12.00;99.90;;;;;;5108545;27;19907;-70
2023/10/31 09:34:03;;;;;;;;;;;12.00;99.90;;;;;;5095097;27;19908;-70
2023/10/31 09:36:32;;;;;;;;;;;12.00;99.90;;;;;;5110255;28;19915;-70
2023/10/31 09:38:57;;;;;;;;;;;12.00;99.90;;;;;;5090909;28;19916;-70
2023/10/31 09:41:23;;;;;;;;;;;12.00;99.90;;;;;;5097417;27;19918;-70
2023/10/31 09:43:50;;;;;;;;;;;12.00;99.90;;;;;;5112217;27;19943;-70
2023/10/31 09:46:15;;;;;;;;;;;12.00;99.90;;;;;;5122500;27;19919;-70
2023/10/31 09:48:41;;;;;;;;;;;12.10;99.90;;;;;;5106911;27;19931;-70
2023/10/31 09:51:07;;;;;;;;;;;12.10;99.90;;;;;;5103733;28;19912;-70
2023/10/31 09:53:33;;;;;;;;;;;12.10;99.90;;;;;;5102691;28;19919;-70
2023/10/31 09:55:59;;;;;;;;;;;12.10;99.90;;;;;;5107427;27;19974;-70
2023/10/31 09:58:24;;;;;;;;;;;12.10;99.90;;;;;;5108179;28;19951;-70
2023/10/31 10:00:50;;;;;;;;;;;12.10;99.90;;;;;;5107183;27;19911;-70
2023/10/31 10:03:16;;;;;;;;;;;12.10;99.90;;;;;;5110730;27;19924;-70
2023/10/31 10:05:43;;;;;;;;;;;12.10;99.90;;;;;;5109639;27;19938;-70
2023/10/31 10:08:09;;;;;;;;;;;12.10;99.90;;;;;;5108038;28;19995;-70
2023/10/31 10:10:35;;;;;;;;;;;12.10;99.90;;;;;;5109372;27;19919;-70
2023/10/31 10:13:03;;;;;;;;;;;12.20;99.90;;;;;;5108811;28;19908;-70
2023/10/31 10:15:28;;;;;;;;;;;12.20;99.90;;;;;;5108123;28;19912;-70
2023/10/31 10:17:54;;;;;;;;;;;12.20;99.90;;;;;;5108587;28;19956;-70
2023/10/31 10:20:20;;;;;;;;;;;12.20;99.90;;;;;;5108934;28;19935;-70
2023/10/31 10:22:46;;;;;;;;;;;12.20;99.90;;;;;;5093062;27;19912;-70
2023/10/31 10:25:20;;;;;;;;;;;12.20;99.90;;;;;;5116449;27;19915;-70
2023/10/31 10:27:46;;;;;;;;;;;12.30;99.90;;;;;;5111285;27;19912;-70
2023/10/31 10:30:13;;;;;;;;;;;12.20;99.90;;;;;;5114545;27;19912;-70
2023/10/31 10:32:38;;;;;;;;;;;12.30;99.90;;;;;;5115434;27;20339;-70
2023/10/31 10:35:04;;;;;;;;;;;12.20;99.90;;;;;;5110469;28;19912;-70
2023/10/31 10:37:30;;;;;;;;;;;12.30;99.90;;;;;;5109596;27;19912;-70
2023/10/31 10:39:56;;;;;;;;;;;12.30;99.90;;;;;;5121812;27;19916;-70
2023/10/31 10:42:32;;;;;;;;;;;12.30;99.90;;;;;;5109550;27;19995;-70
2023/10/31 10:45:01;;;;;;;;;;;12.30;99.90;;;;;;5101397;28;19912;-70
2023/10/31 10:47:27;;;;;;;;;;;12.30;99.90;;;;;;5117554;27;19937;-70
2023/10/31 10:49:54;;;;;;;;;;;12.30;99.90;;;;;;5119281;27;19912;-70
2023/10/31 10:52:26;;;;;;;;;;;12.30;99.90;;;;;;5109998;27;20364;-70
2023/10/31 10:55:01;;;;;;;;;;;12.30;99.90;;;;;;5117064;27;19997;-70
2023/10/31 10:57:27;;;;;;;;;;;12.30;99.90;;;;;;5118937;27;20006;-70
2023/10/31 10:59:56;;;;;;;;;;;12.30;99.90;;;;;;5109809;27;20010;-70
2023/10/31 11:02:22;;;;;;;;;;;12.30;99.90;;;;;;5098255;28;19924;-70
2023/10/31 11:04:48;;;;;;;;;;;12.30;99.90;;;;;;5099474;28;20036;-70
2023/10/31 11:07:15;;;;;;;;;;;12.20;99.90;;;;;;5106675;28;19940;-70
2023/10/31 11:09:43;;;;;;;;;;;12.20;99.90;;;;;;5102262;27;19908;-70
2023/10/31 11:12:10;;;;;;;;;;;12.20;99.90;;;;;;5109305;27;19943;-70
2023/10/31 11:14:36;;;;;;;;;;;12.20;99.90;;;;;;5103224;27;19908;-70
2023/10/31 11:17:06;;;;;;;;;;;12.20;99.90;;;;;;5110069;27;19907;-70
2023/10/31 11:19:33;;;;;;;;;;;12.20;99.90;;;;;;5118050;27;19920;-70
2023/10/31 11:22:02;;;;;;;;;;;12.30;99.90;;;;;;5100684;28;20065;-70
2023/10/31 11:24:28;;;;;;;;;;;12.30;99.90;;;;;;5108386;27;19911;-70
2023/10/31 11:26:57;;;;;;;;;;;12.30;99.90;;;;;;5116202;27;19969;-70
2023/10/31 11:29:23;;;;;;;;;;;12.40;99.90;;;;;;5095322;28;19911;-70
2023/10/31 11:31:48;;;;;;;;;;;12.40;99.90;;;;;;5108919;27;20629;-70
2023/10/31 11:34:16;;;;;;;;;;;12.40;99.90;;;;;;5099618;27;19915;-69
2023/10/31 11:36:41;;;;;;;;;;;12.40;99.90;;;;;;5099942;27;20374;-69
2023/10/31 11:39:14;;;;;;;;;;;12.50;99.90;;;;;;5109104;28;20018;-69
2023/10/31 11:41:40;;;;;;;;;;;12.50;99.90;;;;;;5125882;27;20018;-70
2023/10/31 11:44:05;;;;;;;;;;;12.50;99.90;;;;;;5106422;27;19999;-70
2023/10/31 11:46:31;;;;;;;;;;;12.50;99.90;;;;;;5112934;27;20294;-70
2023/10/31 11:48:57;;;;;;;;;;;12.50;99.90;;;;;;5106455;27;19946;-70
2023/10/31 11:51:22;;;;;;;;;;;12.60;99.90;;;;;;5112345;27;19923;-70
2023/10/31 11:53:49;;;;;;;;;;;12.60;99.90;;;;;;5123010;27;19912;-70
2023/10/31 11:56:15;;;;;;;;;;;12.60;99.90;;;;;;5097186;27;19912;-70
2023/10/31 11:58:41;;;;;;;;;;;12.60;99.90;;;;;;5094040;28;19938;-70
2023/10/31 12:01:08;;;;;;;;;;;12.70;99.90;;;;;;5095016;28;19954;-70
2023/10/31 12:03:40;;;;;;;;;;;12.70;99.90;;;;;;5097070;28;19912;-70
2023/10/31 12:06:06;;;;;;;;;;;12.70;99.90;;;;;;5096769;27;19964;-70
2023/10/31 12:08:33;;;;;;;;;;;12.80;99.90;;;;;;5112609;27;19923;-70
2023/10/31 12:11:17;;;;;;;;;;;12.80;99.90;;;;;;5088905;28;20014;-70
2023/10/31 12:14:12;;;;;;;;;;;12.80;99.90;;;;;;5099522;27;19912;-70
2023/10/31 12:16:37;;;;;;;;;;;12.90;99.90;;;;;;5095161;28;19990;-70
2023/10/31 12:19:04;;;;;;;;;;;12.90;99.90;;;;;;5098340;27;20360;-70
2023/10/31 12:21:37;;;;;;;;;;;12.90;99.90;;;;;;5101901;27;19965;-70
2023/10/31 12:24:03;;;;;;;;;;;13.00;99.90;;;;;;5099041;28;19911;-70
2023/10/31 12:26:29;;;;;;;;;;;13.00;99.90;;;;;;5107490;28;20423;-70
2023/10/31 12:29:06;;;;;;;;;;;13.00;99.90;;;;;;5098365;28;19913;-70
2023/10/31 12:31:31;;;;;;;;;;;13.00;99.90;;;;;;5103002;28;19916;-70
2023/10/31 12:33:57;;;;;;;;;;;13.00;99.90;;;;;;5107356;27;20376;-70
2023/10/31 12:36:22;;;;;;;;;;;13.00;99.90;;;;;;5109873;27;19920;-70
2023/10/31 12:38:48;;;;;;;;;;;13.00;99.90;;;;;;5095419;28;19916;-70
2023/10/31 12:41:13;;;;;;;;;;;13.10;99.90;;;;;;5092301;28;19981;-70
2023/10/31 12:43:39;;;;;;;;;;;13.10;99.90;;;;;;5108851;27;19912;-70
2023/10/31 12:46:25;;;;;;;;;;;13.10;99.90;;;;;;5099219;28;19908;-69
2023/10/31 12:48:51;;;;;;;;;;;13.10;99.90;;;;;;5088710;28;19916;-70
2023/10/31 12:51:16;;;;;;;;;;;13.10;99.90;;;;;;5105227;27;19911;-70
2023/10/31 12:53:47;;;;;;;;;;;13.10;99.90;;;;;;5102315;27;19998;-70
2023/10/31 12:56:33;;;;;;;;;;;13.10;99.90;;;;;;5106784;28;20526;-70
2023/10/31 12:58:59;;;;;;;;;;;13.10;99.90;;;;;;5104262;27;20451;-70
2023/10/31 13:01:24;;;;;;;;;;;13.00;99.90;;;;;;5094821;28;20021;-70
2023/10/31 13:03:53;;;;;;;;;;;13.10;99.90;;;;;;5100939;27;19909;-70
2023/10/31 13:06:19;;;;;;;;;;;13.00;99.90;;;;;;5108421;27;19920;-70
2023/10/31 13:08:45;;;;;;;;;;;13.10;99.90;;;;;;5104687;27;19999;-70
2023/10/31 13:11:11;;;;;;;;;;;13.00;99.90;;;;;;5099461;28;20359;-70
2023/10/31 13:13:37;;;;;;;;;;;13.00;99.90;;;;;;5103647;28;19915;-70
2023/10/31 13:16:02;;;;;;;;;;;13.10;99.90;;;;;;5090637;28;19931;-70
2023/10/31 13:18:28;;;;;;;;;;;13.00;99.90;;;;;;5098574;28;19927;-70
2023/10/31 13:20:53;;;;;;;;;;;13.00;99.90;;;;;;5107918;28;20310;-70
2023/10/31 13:23:20;;;;;;;;;;;13.00;99.90;;;;;;5107794;27;20368;-70
2023/10/31 13:25:45;;;;;;;;;;;13.00;99.90;;;;;;5106742;27;20511;-70
2023/10/31 13:28:12;;;;;;;;;;;13.00;99.90;;;;;;5104858;27;19911;-70
2023/10/31 13:30:37;;;;;;;;;;;13.10;99.90;;;;;;5113333;28;19919;-70
2023/10/31 13:33:03;;;;;;;;;;;13.10;99.90;;;;;;5094923;28;19927;-70
2023/10/31 13:35:28;;;;;;;;;;;13.10;99.90;;;;;;5111624;27;19920;-70
2023/10/31 13:37:54;;;;;;;;;;;13.10;99.90;;;;;;5118497;28;19935;-70
2023/10/31 13:40:20;;;;;;;;;;;13.10;99.90;;;;;;5109102;28;20225;-70
2023/10/31 13:42:45;;;;;;;;;;;13.10;99.90;;;;;;5114813;27;20340;-70
2023/10/31 13:45:11;;;;;;;;;;;13.10;99.90;;;;;;5122966;27;20450;-70
2023/10/31 13:47:37;;;;;;;;;;;13.00;99.90;;;;;;5098759;28;19923;-70
2023/10/31 13:50:04;;;;;;;;;;;13.10;99.90;;;;;;5103099;28;19912;-70
2023/10/31 13:52:30;;;;;;;;;;;13.00;99.90;;;;;;5118895;27;19912;-70
2023/10/31 13:54:55;;;;;;;;;;;13.00;99.90;;;;;;5124540;27;19907;-70
2023/10/31 13:57:21;;;;;;;;;;;13.00;99.90;;;;;;5114665;27;19976;-70
2023/10/31 13:59:47;;;;;;;;;;;13.00;99.90;;;;;;5108275;27;19923;-70
2023/10/31 14:02:12;;;;;;;;;;;13.00;99.90;;;;;;5121769;27;19912;-70
2023/10/31 14:04:38;;;;;;;;;;;13.00;99.90;;;;;;5112388;28;19923;-70
2023/10/31 14:07:03;;;;;;;;;;;13.00;99.90;;;;;;5106924;27;19908;-70
2023/10/31 14:09:30;;;;;;;;;;;13.00;99.90;;;;;;5132274;27;20284;-70